This is the latest recevied weather packets stored in our database for station/object KC2BRB-1. If no packets are shown the sender has not sent any weather packets the latest 10 day(s).
| Time | Temp. | Humidity | Pressure | Rain* | Wind** | Luminosity | Snow |
|---|---|---|---|---|---|---|---|
| 1777577566 | 31.67° C | 47% | 1007.8 hPa | 0 mm | - | - | - |
| 1777576966 | 31.11° C | 44% | 1007.8 hPa | 0 mm | - | - | - |
| 1777576666 | 31.11° C | 44% | 1007.8 hPa | 0 mm | - | - | - |
| 1777576366 | 32.22° C | 45% | 1007.8 hPa | 0 mm | - | - | - |
| 1777575466 | 32.22° C | 47% | 1008.3 hPa | 0 mm | - | - | - |
| 1777574266 | 31.67° C | 46% | 1008.2 hPa | 0 mm | - | - | - |
| 1777568867 | 30° C | 54% | 1009.2 hPa | 0 mm | - | - | - |
| 1777568567 | 30° C | 54% | 1009.3 hPa | 0 mm | - | - | - |
| 1777568366 | 30° C | 54% | 1009.3 hPa | 0 mm | - | - | - |
| 1777565746 | 28.89° C | 60% | 1009.8 hPa | 0 mm | - | - | - |
| 1777565267 | 28.89° C | 60% | 1009.8 hPa | 0 mm | - | - | - |
| 1777563467 | 27.78° C | 65% | 1009.9 hPa | 0 mm | - | - | - |
| 1777563167 | 27.78° C | 69% | 1010.2 hPa | 0 mm | - | - | - |
| 1777562948 | 27.78° C | 69% | 1010.2 hPa | 0 mm | - | - | - |
| 1777562568 | 27.22° C | 71% | 1010.2 hPa | 0 mm | - | - | - |
| 1777562267 | 27.22° C | 71% | 1010.2 hPa | 0 mm | - | - | - |
| 1777554767 | 22.78° C | 91% | 1010.4 hPa | 0 mm | - | - | - |
| 1777554468 | 22.78° C | 91% | 1010.4 hPa | 0 mm | - | - | - |
| 1777554332 | 22.22° C | 91% | 1010.4 hPa | 0 mm | - | - | - |
| 1777552068 | 21.67° C | 94% | 1010.1 hPa | 0 mm | - | - | - |
| 1777550868 | 21.11° C | 95% | 1009.8 hPa | 0 mm | - | - | - |
| 1777550268 | 21.11° C | 96% | 1009.7 hPa | 0 mm | - | - | - |
| 1777548168 | 20.56° C | 95% | 1009.4 hPa | 0 mm | - | - | - |
| 1777547932 | 20.56° C | 95% | 1009.3 hPa | 0 mm | - | - | - |
| 1777547568 | 20.56° C | 95% | 1009.3 hPa | 0 mm | - | - | - |
* Rain latest hour (hover to see other rain measurements)
** Current wind speed in m/s (hover to see current wind gust speed)